createdAt,value
2018-10-07T00:00:15.927Z,1004.85
2018-10-07T00:01:15.941Z,1004.87
2018-10-07T00:02:15.965Z,1004.90
2018-10-07T00:03:16.070Z,1004.91
2018-10-07T00:04:16.092Z,1004.91
2018-10-07T00:06:16.414Z,1004.96
2018-10-07T00:07:16.029Z,1004.98
2018-10-07T00:08:16.043Z,1004.98
2018-10-07T00:09:16.061Z,1004.93
2018-10-07T00:10:16.172Z,1004.95
2018-10-07T00:11:16.088Z,1005.02
2018-10-07T00:12:16.105Z,1005.00
2018-10-07T00:13:16.171Z,1005.07
2018-10-07T00:14:16.199Z,1005.13
2018-10-07T00:15:16.206Z,1005.16
2018-10-07T00:16:16.163Z,1005.17
2018-10-07T00:17:16.174Z,1005.20
2018-10-07T00:18:16.193Z,1005.18
2018-10-07T00:19:16.270Z,1005.28
2018-10-07T00:20:16.223Z,1005.35
2018-10-07T00:21:16.232Z,1005.40
2018-10-07T00:22:16.259Z,1005.48
2018-10-07T00:23:16.298Z,1005.46
2018-10-07T00:24:16.277Z,1005.53
2018-10-07T00:25:16.293Z,1005.54
2018-10-07T00:26:16.307Z,1005.59
2018-10-07T00:27:16.320Z,1005.57
2018-10-07T00:28:16.337Z,1005.57
2018-10-07T00:29:16.349Z,1005.55
2018-10-07T00:30:16.368Z,1005.56
2018-10-07T00:31:16.380Z,1005.56
2018-10-07T00:32:16.395Z,1005.58
2018-10-07T00:33:16.412Z,1005.56
2018-10-07T00:34:16.473Z,1005.59
2018-10-07T00:37:16.486Z,1005.61
2018-10-07T00:38:16.770Z,1005.57
2018-10-07T00:39:16.497Z,1005.60
2018-10-07T00:40:16.512Z,1005.62
2018-10-07T00:41:16.526Z,1005.67
2018-10-07T00:42:16.541Z,1005.68
2018-10-07T00:43:16.981Z,1005.71
2018-10-07T00:44:16.574Z,1005.79
2018-10-07T00:45:16.585Z,1005.76
2018-10-07T00:46:16.825Z,1005.81
2018-10-07T00:47:16.674Z,1005.72
2018-10-07T00:48:16.628Z,1005.79
2018-10-07T00:49:16.646Z,1005.75
2018-10-07T00:50:16.656Z,1005.80
2018-10-07T00:51:16.672Z,1005.80
2018-10-07T00:52:16.689Z,1005.86
2018-10-07T00:53:16.705Z,1005.88
2018-10-07T00:54:16.717Z,1005.94
2018-10-07T00:55:16.731Z,1005.98
2018-10-07T00:56:16.747Z,1006.05
2018-10-07T00:57:16.761Z,1006.03
2018-10-07T00:58:16.774Z,1006.07
2018-10-07T00:59:16.789Z,1006.08
2018-10-07T01:00:16.816Z,1006.10
2018-10-07T01:01:16.820Z,1006.09
2018-10-07T01:02:16.833Z,1006.09
2018-10-07T01:03:16.847Z,1006.11
2018-10-07T01:04:16.865Z,1006.12
2018-10-07T01:05:16.880Z,1006.14
2018-10-07T01:06:16.892Z,1006.22
2018-10-07T01:07:16.956Z,1006.19
2018-10-07T01:08:17.245Z,1006.21
2018-10-07T01:09:17.349Z,1006.22
2018-10-07T01:10:16.952Z,1006.24
2018-10-07T01:11:16.964Z,1006.27
2018-10-07T01:12:16.978Z,1006.30
2018-10-07T01:13:16.992Z,1006.34
2018-10-07T01:14:17.007Z,1006.33
2018-10-07T01:15:17.022Z,1006.33
2018-10-07T01:16:17.034Z,1006.33
2018-10-07T01:17:17.054Z,1006.34
2018-10-07T01:20:17.439Z,1006.35
2018-10-07T01:21:17.111Z,1006.36
2018-10-07T01:22:17.123Z,1006.42
2018-10-07T01:23:17.431Z,1006.49
2018-10-07T01:24:17.152Z,1006.50
2018-10-07T01:25:17.170Z,1006.54
2018-10-07T01:26:17.179Z,1006.57
2018-10-07T01:27:17.196Z,1006.59
2018-10-07T01:28:17.210Z,1006.56
2018-10-07T01:29:17.288Z,1006.53
2018-10-07T01:30:17.239Z,1006.52
2018-10-07T01:31:17.256Z,1006.54
2018-10-07T01:32:17.269Z,1006.57
2018-10-07T01:33:19.654Z,1006.61
2018-10-07T01:34:17.326Z,1006.60
2018-10-07T01:35:17.319Z,1006.61
2018-10-07T01:36:17.331Z,1006.58
2018-10-07T01:37:17.341Z,1006.62
2018-10-07T01:38:17.516Z,1006.64
2018-10-07T01:40:17.467Z,1006.57
2018-10-07T01:42:17.828Z,1006.58
2018-10-07T01:43:20.417Z,1006.61
2018-10-07T01:44:18.120Z,1006.63
2018-10-07T01:45:18.989Z,1006.71
2018-10-07T01:46:19.799Z,1006.72
2018-10-07T01:48:17.932Z,1006.68
2018-10-07T01:49:17.517Z,1006.69
2018-10-07T01:50:17.554Z,1006.71
2018-10-07T01:51:17.682Z,1006.79
2018-10-07T01:52:17.567Z,1006.77
2018-10-07T01:53:17.584Z,1006.82
2018-10-07T01:54:17.590Z,1006.79
2018-10-07T01:55:17.603Z,1006.81
2018-10-07T01:56:17.617Z,1006.84
2018-10-07T01:57:17.633Z,1006.85
2018-10-07T01:58:17.647Z,1006.90
2018-10-07T01:59:17.718Z,1006.91
2018-10-07T02:00:17.678Z,1006.92
2018-10-07T02:01:17.696Z,1006.94
2018-10-07T02:02:17.712Z,1006.98
2018-10-07T02:04:17.734Z,1006.99
2018-10-07T02:05:17.751Z,1007.00
2018-10-07T02:06:17.905Z,1007.04
2018-10-07T02:07:17.778Z,1007.05
2018-10-07T02:08:17.795Z,1007.07
2018-10-07T02:09:17.855Z,1007.13
2018-10-07T02:11:17.840Z,1007.10
2018-10-07T02:12:17.852Z,1007.14
2018-10-07T02:13:17.900Z,1007.17
2018-10-07T02:14:17.881Z,1007.20
2018-10-07T02:15:17.895Z,1007.30
2018-10-07T02:16:17.933Z,1007.29
2018-10-07T02:17:17.947Z,1007.35
2018-10-07T02:18:17.942Z,1007.42
2018-10-07T02:19:17.955Z,1007.48
2018-10-07T02:20:17.966Z,1007.47
2018-10-07T02:21:17.986Z,1007.47
2018-10-07T02:22:17.998Z,1007.50
2018-10-07T02:23:18.014Z,1007.49
2018-10-07T02:24:18.413Z,1007.51
2018-10-07T02:25:18.345Z,1007.57
2018-10-07T02:26:19.013Z,1007.63
2018-10-07T02:27:18.084Z,1007.66
2018-10-07T02:28:18.087Z,1007.68
2018-10-07T02:29:18.102Z,1007.65
2018-10-07T02:30:18.118Z,1007.61
2018-10-07T02:31:18.126Z,1007.60
2018-10-07T02:32:18.147Z,1007.62
2018-10-07T02:33:18.168Z,1007.66
2018-10-07T02:34:18.169Z,1007.67
2018-10-07T02:35:18.183Z,1007.65
2018-10-07T02:36:18.200Z,1007.77
2018-10-07T02:37:18.226Z,1007.78
2018-10-07T02:38:18.352Z,1007.74
2018-10-07T02:39:18.241Z,1007.83
2018-10-07T02:40:18.262Z,1007.92
2018-10-07T02:41:18.288Z,1007.88
2018-10-07T02:42:18.285Z,1007.98
2018-10-07T02:43:18.300Z,1007.97
2018-10-07T02:44:18.316Z,1007.94
2018-10-07T02:45:18.412Z,1007.93
2018-10-07T02:47:18.360Z,1007.80
2018-10-07T02:48:18.382Z,1007.80
2018-10-07T02:49:18.385Z,1007.83
2018-10-07T02:50:18.398Z,1007.85
2018-10-07T02:51:18.413Z,1007.83
2018-10-07T02:52:18.427Z,1007.85
2018-10-07T02:53:18.598Z,1007.94
2018-10-07T02:54:18.473Z,1008.11
2018-10-07T02:56:18.488Z,1008.25
2018-10-07T02:57:18.498Z,1008.28
2018-10-07T02:58:18.515Z,1008.36
2018-10-07T02:59:18.923Z,1008.38
2018-10-07T03:00:18.546Z,1008.39
2018-10-07T03:01:18.562Z,1008.33
2018-10-07T03:02:18.583Z,1008.33
2018-10-07T03:03:18.586Z,1008.36
2018-10-07T03:04:18.599Z,1008.49
2018-10-07T03:05:18.615Z,1008.55
2018-10-07T03:06:18.634Z,1008.52
2018-10-07T03:07:18.642Z,1008.53
2018-10-07T03:08:18.654Z,1008.55
2018-10-07T03:09:18.676Z,1008.59
2018-10-07T03:10:18.684Z,1008.55
2018-10-07T03:11:18.699Z,1008.55
2018-10-07T03:12:18.713Z,1008.60
2018-10-07T03:13:18.738Z,1008.64
2018-10-07T03:14:18.749Z,1008.63
2018-10-07T03:15:18.758Z,1008.65
2018-10-07T03:16:18.824Z,1008.60
2018-10-07T03:17:18.783Z,1008.66
2018-10-07T03:18:18.899Z,1008.68
2018-10-07T03:19:18.960Z,1008.71
2018-10-07T03:20:19.142Z,1008.67
2018-10-07T03:21:18.845Z,1008.75
2018-10-07T03:22:18.906Z,1008.80
2018-10-07T03:23:18.874Z,1008.81
2018-10-07T03:24:18.888Z,1008.85
2018-10-07T03:25:18.901Z,1008.82
2018-10-07T03:26:18.914Z,1008.86
2018-10-07T03:27:18.927Z,1008.91
2018-10-07T03:28:18.945Z,1008.96
2018-10-07T03:29:18.972Z,1009.00
2018-10-07T03:30:18.968Z,1009.06
2018-10-07T03:32:19.466Z,1009.07
2018-10-07T03:33:19.012Z,1009.10
2018-10-07T03:34:19.026Z,1009.11
2018-10-07T03:35:19.045Z,1009.10
2018-10-07T03:36:19.071Z,1009.05
2018-10-07T03:37:19.067Z,1009.03
2018-10-07T03:38:19.092Z,1009.09
2018-10-07T03:39:19.244Z,1009.07
2018-10-07T03:40:19.111Z,1009.10
2018-10-07T03:41:19.127Z,1009.04
2018-10-07T03:42:19.136Z,1009.09
2018-10-07T03:43:19.151Z,1009.11
2018-10-07T03:44:19.168Z,1009.15
2018-10-07T03:45:19.190Z,1009.19
2018-10-07T03:46:19.196Z,1009.22
2018-10-07T03:47:19.210Z,1009.32
2018-10-07T03:48:19.224Z,1009.35
2018-10-07T03:49:19.307Z,1009.33
2018-10-07T03:50:19.249Z,1009.30
2018-10-07T03:54:19.306Z,1009.33
2018-10-07T03:55:19.323Z,1009.33
2018-10-07T03:56:19.349Z,1009.38
2018-10-07T03:57:19.349Z,1009.39
2018-10-07T03:58:19.365Z,1009.41
2018-10-07T03:59:19.375Z,1009.42
2018-10-07T04:00:19.389Z,1009.44
2018-10-07T04:01:19.411Z,1009.46
2018-10-07T04:02:19.419Z,1009.44
2018-10-07T04:03:19.445Z,1009.49
2018-10-07T04:04:19.444Z,1009.50
2018-10-07T04:05:19.559Z,1009.55
2018-10-07T04:06:19.774Z,1009.49
2018-10-07T04:07:19.515Z,1009.51
2018-10-07T04:08:19.504Z,1009.47
2018-10-07T04:09:19.513Z,1009.45
2018-10-07T04:10:19.533Z,1009.47
2018-10-07T04:11:19.544Z,1009.49
2018-10-07T04:12:19.565Z,1009.48
2018-10-07T04:13:19.573Z,1009.53
2018-10-07T04:14:19.594Z,1009.55
2018-10-07T04:15:19.603Z,1009.58
2018-10-07T04:16:19.610Z,1009.60
2018-10-07T04:17:19.625Z,1009.60
2018-10-07T04:18:19.642Z,1009.62
2018-10-07T04:19:19.655Z,1009.56
2018-10-07T04:20:19.670Z,1009.56
2018-10-07T04:21:19.681Z,1009.59
2018-10-07T04:22:19.696Z,1009.68
2018-10-07T04:23:19.708Z,1009.63
2018-10-07T04:24:19.978Z,1009.65
2018-10-07T04:26:20.161Z,1009.64
2018-10-07T04:28:20.108Z,1009.61
2018-10-07T04:29:19.791Z,1009.63
2018-10-07T04:30:19.805Z,1009.63
2018-10-07T04:31:19.817Z,1009.64
2018-10-07T04:32:19.833Z,1009.67
2018-10-07T04:33:19.846Z,1009.60
2018-10-07T04:34:19.860Z,1009.65
2018-10-07T04:35:19.874Z,1009.61
2018-10-07T04:36:19.890Z,1009.68
2018-10-07T04:37:19.905Z,1009.71
2018-10-07T04:39:20.537Z,1009.70
2018-10-07T04:40:19.944Z,1009.73
2018-10-07T04:41:19.959Z,1009.68
2018-10-07T04:42:19.971Z,1009.75
2018-10-07T04:43:19.984Z,1009.77
2018-10-07T04:44:19.997Z,1009.77
2018-10-07T04:45:20.014Z,1009.78
2018-10-07T04:46:20.149Z,1009.77
2018-10-07T04:47:20.041Z,1009.77
2018-10-07T04:48:20.357Z,1009.77
2018-10-07T04:49:20.065Z,1009.77
2018-10-07T04:50:20.083Z,1009.82
2018-10-07T04:51:20.098Z,1009.79
2018-10-07T04:52:20.110Z,1009.77
2018-10-07T04:53:20.123Z,1009.82
2018-10-07T04:54:20.144Z,1009.83
2018-10-07T04:55:20.154Z,1009.85
2018-10-07T04:56:20.324Z,1009.85
2018-10-07T04:58:20.189Z,1009.91
2018-10-07T04:59:20.203Z,1009.87
2018-10-07T05:00:20.260Z,1009.91
2018-10-07T05:01:20.233Z,1009.93
2018-10-07T05:02:20.243Z,1009.92
2018-10-07T05:03:20.269Z,1009.91
2018-10-07T05:04:20.298Z,1009.98
2018-10-07T05:05:20.285Z,1009.99
2018-10-07T05:06:20.303Z,1010.03
2018-10-07T05:07:20.317Z,1010.05
2018-10-07T05:08:20.329Z,1010.02
2018-10-07T05:09:20.998Z,1010.02
2018-10-07T05:10:20.352Z,1010.11
2018-10-07T05:11:20.374Z,1010.09
2018-10-07T05:12:20.568Z,1010.15
2018-10-07T05:13:20.397Z,1010.16
2018-10-07T05:14:20.408Z,1010.23
2018-10-07T05:15:20.423Z,1010.20
2018-10-07T05:16:20.786Z,1010.23
2018-10-07T05:17:20.450Z,1010.25
2018-10-07T05:18:20.463Z,1010.28
2018-10-07T05:19:20.481Z,1010.29
2018-10-07T05:20:20.490Z,1010.35
2018-10-07T05:21:20.520Z,1010.39
2018-10-07T05:22:20.519Z,1010.36
2018-10-07T05:23:20.536Z,1010.45
2018-10-07T05:24:20.548Z,1010.50
2018-10-07T05:25:20.563Z,1010.51
2018-10-07T05:26:20.575Z,1010.54
2018-10-07T05:27:20.600Z,1010.56
2018-10-07T05:29:20.645Z,1010.64
2018-10-07T05:30:20.734Z,1010.67
2018-10-07T05:31:20.640Z,1010.71
2018-10-07T05:32:20.654Z,1010.71
2018-10-07T05:33:20.688Z,1010.72
2018-10-07T05:34:20.691Z,1010.74
2018-10-07T05:35:20.697Z,1010.79
2018-10-07T05:36:20.714Z,1010.81
2018-10-07T05:37:20.726Z,1010.81
2018-10-07T05:38:20.741Z,1010.83
2018-10-07T05:39:20.752Z,1010.85
2018-10-07T05:40:20.767Z,1010.86
2018-10-07T05:41:20.823Z,1010.90
2018-10-07T05:42:20.853Z,1010.92
2018-10-07T05:43:20.806Z,1010.95
2018-10-07T05:44:20.934Z,1010.96
2018-10-07T05:45:20.837Z,1010.98
2018-10-07T05:46:20.847Z,1010.99
2018-10-07T05:47:20.873Z,1011.00
2018-10-07T05:48:20.875Z,1011.02
2018-10-07T05:49:20.890Z,1011.05
2018-10-07T05:50:20.902Z,1011.08
2018-10-07T05:51:20.922Z,1011.06
2018-10-07T05:52:20.992Z,1011.07
2018-10-07T05:53:20.943Z,1011.11
2018-10-07T05:54:20.957Z,1011.10
2018-10-07T05:55:20.972Z,1011.11
2018-10-07T05:56:21.000Z,1011.16
2018-10-07T05:57:20.999Z,1011.19
2018-10-07T05:58:21.285Z,1011.17
2018-10-07T05:59:21.027Z,1011.24
2018-10-07T06:00:21.039Z,1011.25
2018-10-07T06:01:21.108Z,1011.29
2018-10-07T06:03:21.837Z,1011.36
2018-10-07T06:04:21.149Z,1011.39
2018-10-07T06:05:21.114Z,1011.47
2018-10-07T06:06:21.123Z,1011.45
2018-10-07T06:07:21.135Z,1011.42
2018-10-07T06:08:21.148Z,1011.45
2018-10-07T06:09:21.166Z,1011.47
2018-10-07T06:10:21.177Z,1011.50
2018-10-07T06:11:21.247Z,1011.45
2018-10-07T06:12:21.208Z,1011.51
2018-10-07T06:13:21.218Z,1011.54
2018-10-07T06:14:21.232Z,1011.61
2018-10-07T06:17:21.656Z,1011.74
2018-10-07T06:18:21.312Z,1011.79
2018-10-07T06:19:21.300Z,1011.82
2018-10-07T06:20:21.316Z,1011.86
2018-10-07T06:21:21.340Z,1011.87
2018-10-07T06:22:21.344Z,1011.95
2018-10-07T06:23:21.369Z,1011.96
2018-10-07T06:24:21.368Z,1011.96
2018-10-07T06:25:21.381Z,1012.01
2018-10-07T06:26:21.395Z,1012.00
2018-10-07T06:27:21.408Z,1012.02
2018-10-07T06:28:21.421Z,1012.05
2018-10-07T06:29:21.446Z,1012.10
2018-10-07T06:30:21.448Z,1012.12
2018-10-07T06:31:21.462Z,1012.09
2018-10-07T06:32:21.523Z,1012.16
2018-10-07T06:35:21.510Z,1012.21
2018-10-07T06:36:21.525Z,1012.16
2018-10-07T06:37:21.537Z,1012.20
2018-10-07T06:38:21.558Z,1012.18
2018-10-07T06:39:21.569Z,1012.19
2018-10-07T06:40:21.579Z,1012.12
2018-10-07T06:41:21.640Z,1012.16
2018-10-07T06:42:21.606Z,1012.17
2018-10-07T06:43:21.620Z,1012.19
2018-10-07T06:44:21.648Z,1012.23
2018-10-07T06:45:21.690Z,1012.29
2018-10-07T06:46:21.662Z,1012.33
2018-10-07T06:47:21.675Z,1012.35
2018-10-07T06:48:21.692Z,1012.42
2018-10-07T06:49:21.704Z,1012.42
2018-10-07T06:50:21.884Z,1012.40
2018-10-07T06:51:21.736Z,1012.48
2018-10-07T06:52:21.742Z,1012.47
2018-10-07T06:53:21.758Z,1012.50
2018-10-07T06:54:21.774Z,1012.52
2018-10-07T06:55:21.787Z,1012.54
2018-10-07T06:56:21.799Z,1012.56
2018-10-07T06:57:21.833Z,1012.52
2018-10-07T06:58:21.827Z,1012.58
2018-10-07T06:59:21.852Z,1012.63
2018-10-07T07:00:21.854Z,1012.66
2018-10-07T07:01:21.870Z,1012.66
2018-10-07T07:02:21.878Z,1012.67
2018-10-07T07:04:22.020Z,1012.73
2018-10-07T07:05:22.128Z,1012.77
2018-10-07T07:06:22.229Z,1012.77
2018-10-07T07:07:22.378Z,1012.82
2018-10-07T07:08:21.966Z,1012.82
2018-10-07T07:09:21.975Z,1012.90
2018-10-07T07:10:21.988Z,1012.88
2018-10-07T07:11:22.003Z,1012.93
2018-10-07T07:12:22.017Z,1012.93
2018-10-07T07:13:22.031Z,1012.92
2018-10-07T07:14:22.047Z,1012.92
2018-10-07T07:15:22.058Z,1012.95
2018-10-07T07:16:22.072Z,1012.91
2018-10-07T07:17:22.089Z,1012.92
2018-10-07T07:18:22.103Z,1012.96
2018-10-07T07:19:22.114Z,1012.94
2018-10-07T07:20:22.154Z,1012.96
2018-10-07T07:21:22.147Z,1012.96
2018-10-07T07:22:22.154Z,1012.97
2018-10-07T07:23:22.270Z,1012.94
2018-10-07T07:24:22.331Z,1012.93
2018-10-07T07:25:22.425Z,1012.97
2018-10-07T07:26:22.208Z,1012.93
2018-10-07T07:27:22.224Z,1012.97
2018-10-07T07:28:22.241Z,1012.95
2018-10-07T07:29:22.254Z,1013.01
2018-10-07T07:30:22.263Z,1013.08
2018-10-07T07:31:22.309Z,1013.04
2018-10-07T07:32:22.294Z,1013.07
2018-10-07T07:33:22.354Z,1013.08
2018-10-07T07:37:22.367Z,1013.07
2018-10-07T07:38:22.376Z,1013.00
2018-10-07T07:39:22.389Z,1013.11
2018-10-07T07:40:22.402Z,1013.06
2018-10-07T07:41:22.415Z,1013.14
2018-10-07T07:42:22.496Z,1013.06
2018-10-07T07:43:22.444Z,1013.14
2018-10-07T07:44:22.456Z,1013.10
2018-10-07T07:45:22.471Z,1013.15
2018-10-07T07:46:22.488Z,1013.14
2018-10-07T07:47:22.497Z,1013.19
2018-10-07T07:48:22.514Z,1013.17
2018-10-07T07:49:22.525Z,1013.15
2018-10-07T07:50:22.537Z,1013.15
2018-10-07T07:51:22.553Z,1013.16
2018-10-07T07:52:22.564Z,1013.20
2018-10-07T07:53:22.578Z,1013.25
2018-10-07T07:54:22.591Z,1013.25
2018-10-07T07:55:22.605Z,1013.21
2018-10-07T07:57:22.640Z,1013.33
2018-10-07T07:59:23.245Z,1013.40
2018-10-07T08:00:22.680Z,1013.40
2018-10-07T08:01:22.692Z,1013.41
2018-10-07T08:02:22.701Z,1013.50
2018-10-07T08:03:22.715Z,1013.46
2018-10-07T08:04:22.729Z,1013.48
2018-10-07T08:05:22.747Z,1013.47
2018-10-07T08:06:22.769Z,1013.49
2018-10-07T08:07:22.942Z,1013.48
2018-10-07T08:08:23.225Z,1013.50
2018-10-07T08:09:23.170Z,1013.57
2018-10-07T08:10:22.811Z,1013.60
2018-10-07T08:11:22.826Z,1013.64
2018-10-07T08:12:22.846Z,1013.67
2018-10-07T08:13:22.853Z,1013.73
2018-10-07T08:14:22.865Z,1013.75
2018-10-07T08:15:22.879Z,1013.76
2018-10-07T08:16:22.894Z,1013.78
2018-10-07T08:17:22.953Z,1013.77
2018-10-07T08:18:22.922Z,1013.78
2018-10-07T08:19:23.241Z,1013.85
2018-10-07T08:20:22.949Z,1013.82
2018-10-07T08:21:22.966Z,1013.84
2018-10-07T08:22:22.991Z,1013.82
2018-10-07T08:23:23.040Z,1013.84
2018-10-07T08:24:23.007Z,1013.89
2018-10-07T08:25:23.026Z,1013.87
2018-10-07T08:26:23.032Z,1013.84
2018-10-07T08:27:23.047Z,1013.92
2018-10-07T08:28:23.072Z,1013.90
2018-10-07T08:29:23.144Z,1013.89
2018-10-07T08:30:23.195Z,1013.95
2018-10-07T08:31:23.511Z,1013.97
2018-10-07T08:32:23.116Z,1013.98
2018-10-07T08:33:23.134Z,1013.93
2018-10-07T08:34:23.144Z,1013.96
2018-10-07T08:35:23.275Z,1014.00
2018-10-07T08:36:23.174Z,1014.03
2018-10-07T08:37:23.185Z,1014.05
2018-10-07T08:38:23.200Z,1014.06
2018-10-07T08:39:23.267Z,1014.12
2018-10-07T08:41:23.962Z,1014.13
2018-10-07T08:42:23.259Z,1014.14
2018-10-07T08:43:23.271Z,1014.10
2018-10-07T08:44:23.285Z,1014.10
2018-10-07T08:45:23.308Z,1014.12
2018-10-07T08:46:23.311Z,1014.14
2018-10-07T08:47:23.327Z,1014.15
2018-10-07T08:48:23.339Z,1014.13
2018-10-07T08:49:23.353Z,1014.15
2018-10-07T08:50:23.365Z,1014.12
2018-10-07T08:51:23.385Z,1014.14
2018-10-07T08:52:23.393Z,1014.15
2018-10-07T08:53:23.414Z,1014.18
2018-10-07T08:54:23.421Z,1014.20
2018-10-07T08:55:23.435Z,1014.18
2018-10-07T08:56:23.474Z,1014.18
2018-10-07T08:57:23.463Z,1014.18
2018-10-07T08:58:23.481Z,1014.19
2018-10-07T08:59:23.490Z,1014.19
2018-10-07T09:00:23.505Z,1014.16
2018-10-07T09:01:23.735Z,1014.21
2018-10-07T09:02:23.935Z,1014.20
2018-10-07T09:03:23.552Z,1014.21
2018-10-07T09:04:23.566Z,1014.26
2018-10-07T09:05:23.577Z,1014.23
2018-10-07T09:06:23.589Z,1014.28
2018-10-07T09:07:23.604Z,1014.32
2018-10-07T09:08:23.615Z,1014.31
2018-10-07T09:09:23.631Z,1014.33
2018-10-07T09:10:23.647Z,1014.35
2018-10-07T09:11:23.664Z,1014.38
2018-10-07T09:12:23.673Z,1014.36
2018-10-07T09:13:23.685Z,1014.34
2018-10-07T09:14:23.700Z,1014.39
2018-10-07T09:15:23.718Z,1014.36
2018-10-07T09:16:23.832Z,1014.47
2018-10-07T09:17:23.963Z,1014.41
2018-10-07T09:18:24.027Z,1014.41
2018-10-07T09:19:23.829Z,1014.43
2018-10-07T09:20:23.796Z,1014.38
2018-10-07T09:21:23.803Z,1014.40
2018-10-07T09:22:23.995Z,1014.44
2018-10-07T09:23:23.830Z,1014.46
2018-10-07T09:24:23.838Z,1014.44
2018-10-07T09:25:23.853Z,1014.42
2018-10-07T09:26:23.870Z,1014.43
2018-10-07T09:27:24.070Z,1014.41
2018-10-07T09:28:23.896Z,1014.44
2018-10-07T09:29:23.910Z,1014.47
2018-10-07T09:30:24.026Z,1014.48
2018-10-07T09:31:24.101Z,1014.51
2018-10-07T09:33:24.356Z,1014.54
2018-10-07T09:34:23.984Z,1014.53
2018-10-07T09:35:24.002Z,1014.58
2018-10-07T09:36:24.014Z,1014.55
2018-10-07T09:37:24.021Z,1014.53
2018-10-07T09:38:24.036Z,1014.57
2018-10-07T09:39:24.102Z,1014.57
2018-10-07T09:40:24.065Z,1014.60
2018-10-07T09:41:24.077Z,1014.53
2018-10-07T09:42:24.095Z,1014.63
2018-10-07T09:43:24.111Z,1014.59
2018-10-07T09:44:24.131Z,1014.67
2018-10-07T09:45:24.136Z,1014.62
2018-10-07T09:46:24.148Z,1014.65
2018-10-07T09:47:24.183Z,1014.68
2018-10-07T09:50:24.233Z,1014.66
2018-10-07T09:51:24.218Z,1014.65
2018-10-07T09:52:24.272Z,1014.68
2018-10-07T09:53:24.247Z,1014.66
2018-10-07T09:54:24.259Z,1014.68
2018-10-07T09:55:24.274Z,1014.67
2018-10-07T09:56:24.288Z,1014.71
2018-10-07T09:57:24.304Z,1014.68
2018-10-07T09:58:24.318Z,1014.71
2018-10-07T09:59:24.646Z,1014.69
2018-10-07T10:00:24.347Z,1014.75
2018-10-07T10:01:24.439Z,1014.72
2018-10-07T10:02:24.374Z,1014.77
2018-10-07T10:03:24.447Z,1014.73
2018-10-07T10:04:24.512Z,1014.73
2018-10-07T10:05:24.445Z,1014.82
2018-10-07T10:06:24.557Z,1014.80
2018-10-07T10:07:24.442Z,1014.84
2018-10-07T10:08:24.722Z,1014.81
2018-10-07T10:09:24.475Z,1014.86
2018-10-07T10:10:24.486Z,1014.89
2018-10-07T10:11:24.682Z,1014.87
2018-10-07T10:12:24.515Z,1014.89
2018-10-07T10:13:24.530Z,1014.79
2018-10-07T10:14:24.544Z,1014.82
2018-10-07T10:15:24.560Z,1014.77
2018-10-07T10:16:24.571Z,1014.83
2018-10-07T10:17:24.681Z,1014.81
2018-10-07T10:20:24.626Z,1014.86
2018-10-07T10:21:24.642Z,1014.85
2018-10-07T10:22:24.673Z,1014.86
2018-10-07T10:23:24.670Z,1014.87
2018-10-07T10:24:24.685Z,1014.88
2018-10-07T10:25:24.698Z,1014.88
2018-10-07T10:26:24.711Z,1014.87
2018-10-07T10:27:24.733Z,1014.91
2018-10-07T10:28:24.740Z,1014.91
2018-10-07T10:29:24.754Z,1014.91
2018-10-07T10:30:24.860Z,1014.87
2018-10-07T10:31:24.785Z,1014.85
2018-10-07T10:32:24.796Z,1014.87
2018-10-07T10:33:24.812Z,1014.88
2018-10-07T10:34:24.829Z,1014.88
2018-10-07T10:35:24.848Z,1014.85
2018-10-07T10:36:24.862Z,1014.90
2018-10-07T10:37:24.875Z,1014.92
2018-10-07T10:38:24.889Z,1014.98
2018-10-07T10:39:24.957Z,1014.97
2018-10-07T10:40:25.271Z,1015.00
2018-10-07T10:41:24.931Z,1014.96
2018-10-07T10:42:24.938Z,1015.02
2018-10-07T10:43:24.953Z,1015.02
2018-10-07T10:44:24.966Z,1015.05
2018-10-07T10:45:24.983Z,1015.07
2018-10-07T10:46:24.997Z,1015.06
2018-10-07T10:47:25.012Z,1015.08
2018-10-07T10:48:25.085Z,1015.11
2018-10-07T10:49:25.423Z,1015.07
2018-10-07T10:50:25.061Z,1015.12
2018-10-07T10:51:25.066Z,1015.10
2018-10-07T10:52:25.080Z,1015.13
2018-10-07T10:53:25.095Z,1015.15
2018-10-07T10:54:25.108Z,1015.12
2018-10-07T10:55:25.127Z,1015.09
2018-10-07T10:56:25.139Z,1015.09
2018-10-07T10:57:25.151Z,1015.10
2018-10-07T10:58:25.165Z,1015.13
2018-10-07T10:59:25.181Z,1015.11
2018-10-07T11:00:25.196Z,1015.12
2018-10-07T11:01:25.209Z,1015.09
2018-10-07T11:02:25.222Z,1015.03
2018-10-07T11:03:25.236Z,1015.13
2018-10-07T11:04:25.308Z,1015.08
2018-10-07T11:05:25.291Z,1015.08
2018-10-07T11:06:25.282Z,1015.06
2018-10-07T11:07:25.293Z,1015.05
2018-10-07T11:08:25.309Z,1015.07
2018-10-07T11:09:25.325Z,1015.10
2018-10-07T11:10:25.339Z,1015.08
2018-10-07T11:12:25.977Z,1015.14
2018-10-07T11:13:25.380Z,1015.13
2018-10-07T11:14:25.394Z,1015.10
2018-10-07T11:15:25.480Z,1015.12
2018-10-07T11:16:25.442Z,1015.11
2018-10-07T11:17:25.438Z,1015.13
2018-10-07T11:18:25.476Z,1015.11
2018-10-07T11:19:25.665Z,1015.17
2018-10-07T11:20:25.514Z,1015.10
2018-10-07T11:21:25.498Z,1015.06
2018-10-07T11:22:25.511Z,1015.02
2018-10-07T11:23:25.529Z,1015.00
2018-10-07T11:24:25.538Z,1015.03
2018-10-07T11:25:25.551Z,1015.02
2018-10-07T11:26:25.572Z,1014.97
2018-10-07T11:27:25.593Z,1014.98
2018-10-07T11:28:25.596Z,1014.95
2018-10-07T11:29:25.610Z,1014.96
2018-10-07T11:30:25.625Z,1014.92
2018-10-07T11:31:25.642Z,1014.89
2018-10-07T11:32:25.655Z,1014.95
2018-10-07T11:33:25.672Z,1014.93
2018-10-07T11:34:25.680Z,1014.92
2018-10-07T11:35:25.695Z,1014.92
2018-10-07T11:36:25.977Z,1014.92
2018-10-07T11:37:25.722Z,1014.89
2018-10-07T11:38:25.828Z,1014.91
2018-10-07T11:39:25.758Z,1014.90
2018-10-07T11:40:25.770Z,1014.82
2018-10-07T11:41:25.783Z,1014.89
2018-10-07T11:42:25.797Z,1014.86
2018-10-07T11:43:25.811Z,1014.88
2018-10-07T11:45:26.200Z,1014.89
2018-10-07T11:46:25.853Z,1014.87
2018-10-07T11:47:25.869Z,1014.87
2018-10-07T11:48:25.887Z,1014.91
2018-10-07T11:49:25.896Z,1014.89
2018-10-07T11:50:25.925Z,1014.88
2018-10-07T11:51:25.978Z,1014.86
2018-10-07T11:52:26.465Z,1014.84
2018-10-07T11:53:26.549Z,1014.81
2018-10-07T11:54:26.027Z,1014.77
2018-10-07T11:55:25.986Z,1014.72
2018-10-07T11:56:25.997Z,1014.73
2018-10-07T11:57:26.011Z,1014.74
2018-10-07T11:58:26.025Z,1014.71
2018-10-07T11:59:26.042Z,1014.74
2018-10-07T12:00:26.053Z,1014.76
2018-10-07T12:01:26.071Z,1014.77
2018-10-07T12:02:26.082Z,1014.77
2018-10-07T12:03:26.100Z,1014.78
2018-10-07T12:04:26.122Z,1014.80
2018-10-07T12:05:26.132Z,1014.78
2018-10-07T12:06:26.139Z,1014.77
2018-10-07T12:07:26.153Z,1014.74
2018-10-07T12:08:26.168Z,1014.77
2018-10-07T12:09:26.183Z,1014.75
2018-10-07T12:10:26.202Z,1014.74
2018-10-07T12:11:26.213Z,1014.75
2018-10-07T12:12:26.230Z,1014.72
2018-10-07T12:13:26.250Z,1014.73
2018-10-07T12:14:26.258Z,1014.69
2018-10-07T12:15:26.271Z,1014.70
2018-10-07T12:16:26.365Z,1014.64
2018-10-07T12:17:26.313Z,1014.60
2018-10-07T12:18:26.418Z,1014.59
2018-10-07T12:19:26.628Z,1014.57
2018-10-07T12:20:26.382Z,1014.54
2018-10-07T12:21:26.365Z,1014.54
2018-10-07T12:22:26.368Z,1014.57
2018-10-07T12:23:26.385Z,1014.52
2018-10-07T12:25:26.523Z,1014.55
2018-10-07T12:26:26.432Z,1014.55
2018-10-07T12:27:26.441Z,1014.52
2018-10-07T12:28:26.458Z,1014.52
2018-10-07T12:29:26.473Z,1014.48
2018-10-07T12:30:26.487Z,1014.44
2018-10-07T12:31:26.498Z,1014.53
2018-10-07T12:32:26.513Z,1014.51
2018-10-07T12:33:26.529Z,1014.53
2018-10-07T12:34:26.545Z,1014.58
2018-10-07T12:35:26.563Z,1014.60
2018-10-07T12:36:26.574Z,1014.60
2018-10-07T12:37:26.586Z,1014.55
2018-10-07T12:38:26.599Z,1014.58
2018-10-07T12:39:26.617Z,1014.55
2018-10-07T12:40:26.656Z,1014.58
2018-10-07T12:41:26.646Z,1014.54
2018-10-07T12:42:26.662Z,1014.54
2018-10-07T12:43:26.678Z,1014.58
2018-10-07T12:44:26.708Z,1014.61
2018-10-07T12:45:26.707Z,1014.61
2018-10-07T12:46:26.738Z,1014.64